sensor_id;sensor_type;location;lat;lon;timestamp;temperature;humidity
40257;DHT22;25977;45.462;9.210;2023-09-18T00:01:05;25.00;92.40
40257;DHT22;25977;45.462;9.210;2023-09-18T00:03:32;25.00;92.40
40257;DHT22;25977;45.462;9.210;2023-09-18T00:05:58;25.00;92.50
40257;DHT22;25977;45.462;9.210;2023-09-18T00:08:24;24.90;92.50
40257;DHT22;25977;45.462;9.210;2023-09-18T00:10:54;24.90;92.60
40257;DHT22;25977;45.462;9.210;2023-09-18T00:13:21;24.90;92.60
40257;DHT22;25977;45.462;9.210;2023-09-18T00:15:46;24.90;92.70
40257;DHT22;25977;45.462;9.210;2023-09-18T00:18:17;24.80;92.70
40257;DHT22;25977;45.462;9.210;2023-09-18T00:20:43;24.80;92.80
40257;DHT22;25977;45.462;9.210;2023-09-18T00:23:09;24.90;92.80
40257;DHT22;25977;45.462;9.210;2023-09-18T00:25:35;24.80;92.80
40257;DHT22;25977;45.462;9.210;2023-09-18T00:28:02;24.80;92.80
40257;DHT22;25977;45.462;9.210;2023-09-18T00:30:28;24.80;92.80
40257;DHT22;25977;45.462;9.210;2023-09-18T00:32:54;24.80;92.90
40257;DHT22;25977;45.462;9.210;2023-09-18T00:35:20;24.80;92.90
40257;DHT22;25977;45.462;9.210;2023-09-18T00:37:47;24.80;92.90
40257;DHT22;25977;45.462;9.210;2023-09-18T00:40:13;24.80;93.00
40257;DHT22;25977;45.462;9.210;2023-09-18T00:42:40;24.80;93.00
40257;DHT22;25977;45.462;9.210;2023-09-18T00:45:06;24.80;93.00
40257;DHT22;25977;45.462;9.210;2023-09-18T00:47:32;24.80;93.10
40257;DHT22;25977;45.462;9.210;2023-09-18T00:49:57;24.70;93.10
40257;DHT22;25977;45.462;9.210;2023-09-18T00:52:23;24.60;93.20
40257;DHT22;25977;45.462;9.210;2023-09-18T00:54:49;24.60;93.20
40257;DHT22;25977;45.462;9.210;2023-09-18T00:57:15;24.60;93.30
40257;DHT22;25977;45.462;9.210;2023-09-18T00:59:42;24.70;93.30
40257;DHT22;25977;45.462;9.210;2023-09-18T01:02:08;24.70;93.30
40257;DHT22;25977;45.462;9.210;2023-09-18T01:04:34;24.70;93.20
40257;DHT22;25977;45.462;9.210;2023-09-18T01:07:00;24.70;93.20
40257;DHT22;25977;45.462;9.210;2023-09-18T01:09:30;24.80;93.20
40257;DHT22;25977;45.462;9.210;2023-09-18T01:12:11;24.70;93.20
40257;DHT22;25977;45.462;9.210;2023-09-18T01:17:35;24.70;93.20
40257;DHT22;25977;45.462;9.210;2023-09-18T01:20:04;24.70;93.30
40257;DHT22;25977;45.462;9.210;2023-09-18T01:22:31;24.60;93.30
40257;DHT22;25977;45.462;9.210;2023-09-18T01:24:57;24.70;93.40
40257;DHT22;25977;45.462;9.210;2023-09-18T01:27:23;24.70;93.40
40257;DHT22;25977;45.462;9.210;2023-09-18T01:29:50;24.70;93.30
40257;DHT22;25977;45.462;9.210;2023-09-18T01:32:17;24.70;93.40
40257;DHT22;25977;45.462;9.210;2023-09-18T01:34:47;24.60;93.30
40257;DHT22;25977;45.462;9.210;2023-09-18T01:37:17;24.70;93.40
40257;DHT22;25977;45.462;9.210;2023-09-18T01:39:46;24.70;93.40
40257;DHT22;25977;45.462;9.210;2023-09-18T01:42:13;24.70;93.40
40257;DHT22;25977;45.462;9.210;2023-09-18T01:44:38;24.60;93.30
40257;DHT22;25977;45.462;9.210;2023-09-18T01:47:06;24.60;93.30
40257;DHT22;25977;45.462;9.210;2023-09-18T01:49:36;24.60;93.30
40257;DHT22;25977;45.462;9.210;2023-09-18T01:52:04;24.60;93.30
40257;DHT22;25977;45.462;9.210;2023-09-18T01:54:30;24.60;93.30
40257;DHT22;25977;45.462;9.210;2023-09-18T01:56:56;24.50;93.30
40257;DHT22;25977;45.462;9.210;2023-09-18T01:59:22;24.50;93.30
40257;DHT22;25977;45.462;9.210;2023-09-18T02:01:50;24.50;93.30
40257;DHT22;25977;45.462;9.210;2023-09-18T02:04:16;24.50;93.30
40257;DHT22;25977;45.462;9.210;2023-09-18T02:06:43;24.50;93.40
40257;DHT22;25977;45.462;9.210;2023-09-18T02:09:08;24.40;93.50
40257;DHT22;25977;45.462;9.210;2023-09-18T02:11:42;24.40;93.50
40257;DHT22;25977;45.462;9.210;2023-09-18T02:14:09;24.40;93.50
40257;DHT22;25977;45.462;9.210;2023-09-18T02:16:39;24.40;93.60
40257;DHT22;25977;45.462;9.210;2023-09-18T02:19:11;24.40;93.60
40257;DHT22;25977;45.462;9.210;2023-09-18T02:21:38;24.40;93.60
40257;DHT22;25977;45.462;9.210;2023-09-18T02:24:05;24.40;93.60
40257;DHT22;25977;45.462;9.210;2023-09-18T02:26:31;24.30;93.70
40257;DHT22;25977;45.462;9.210;2023-09-18T02:29:03;24.30;93.80
40257;DHT22;25977;45.462;9.210;2023-09-18T02:31:30;24.20;93.80
40257;DHT22;25977;45.462;9.210;2023-09-18T02:33:55;24.30;93.90
40257;DHT22;25977;45.462;9.210;2023-09-18T02:36:21;24.20;93.90
40257;DHT22;25977;45.462;9.210;2023-09-18T02:38:48;24.20;93.90
40257;DHT22;25977;45.462;9.210;2023-09-18T02:41:14;24.20;93.90
40257;DHT22;25977;45.462;9.210;2023-09-18T02:43:39;24.20;93.90
40257;DHT22;25977;45.462;9.210;2023-09-18T02:46:06;24.10;94.00
40257;DHT22;25977;45.462;9.210;2023-09-18T02:48:32;24.00;94.30
40257;DHT22;25977;45.462;9.210;2023-09-18T02:51:02;24.10;94.30
40257;DHT22;25977;45.462;9.210;2023-09-18T02:53:29;24.10;94.30
40257;DHT22;25977;45.462;9.210;2023-09-18T02:55:57;24.00;94.20
40257;DHT22;25977;45.462;9.210;2023-09-18T02:58:23;24.10;94.30
40257;DHT22;25977;45.462;9.210;2023-09-18T03:00:55;24.00;94.20
40257;DHT22;25977;45.462;9.210;2023-09-18T03:03:23;24.10;94.40
40257;DHT22;25977;45.462;9.210;2023-09-18T03:05:48;24.20;94.10
40257;DHT22;25977;45.462;9.210;2023-09-18T03:08:15;23.90;93.90
40257;DHT22;25977;45.462;9.210;2023-09-18T03:10:44;24.30;94.00
40257;DHT22;25977;45.462;9.210;2023-09-18T03:13:11;24.20;93.90
40257;DHT22;25977;45.462;9.210;2023-09-18T03:15:37;24.20;93.90
40257;DHT22;25977;45.462;9.210;2023-09-18T03:18:05;24.20;93.90
40257;DHT22;25977;45.462;9.210;2023-09-18T03:20:31;24.20;93.90
40257;DHT22;25977;45.462;9.210;2023-09-18T03:22:59;24.10;94.10
40257;DHT22;25977;45.462;9.210;2023-09-18T03:25:25;24.10;94.00
40257;DHT22;25977;45.462;9.210;2023-09-18T03:27:52;24.20;94.00
40257;DHT22;25977;45.462;9.210;2023-09-18T03:30:20;24.20;93.90
40257;DHT22;25977;45.462;9.210;2023-09-18T03:32:46;24.20;93.90
40257;DHT22;25977;45.462;9.210;2023-09-18T03:35:14;24.30;93.90
40257;DHT22;25977;45.462;9.210;2023-09-18T03:37:47;24.30;93.90
40257;DHT22;25977;45.462;9.210;2023-09-18T03:40:14;24.30;93.90
40257;DHT22;25977;45.462;9.210;2023-09-18T03:42:40;24.30;94.00
40257;DHT22;25977;45.462;9.210;2023-09-18T03:45:07;24.10;94.00
40257;DHT22;25977;45.462;9.210;2023-09-18T03:47:39;24.20;94.00
40257;DHT22;25977;45.462;9.210;2023-09-18T03:50:06;24.10;94.00
40257;DHT22;25977;45.462;9.210;2023-09-18T03:52:32;24.10;94.10
40257;DHT22;25977;45.462;9.210;2023-09-18T03:54:58;24.00;94.30
40257;DHT22;25977;45.462;9.210;2023-09-18T03:57:24;24.00;94.30
40257;DHT22;25977;45.462;9.210;2023-09-18T03:59:49;24.00;94.30
40257;DHT22;25977;45.462;9.210;2023-09-18T04:02:15;24.10;94.20
40257;DHT22;25977;45.462;9.210;2023-09-18T04:04:41;24.10;94.30
40257;DHT22;25977;45.462;9.210;2023-09-18T04:07:07;24.10;94.40
40257;DHT22;25977;45.462;9.210;2023-09-18T04:09:33;24.10;94.30
40257;DHT22;25977;45.462;9.210;2023-09-18T04:12:03;24.10;94.30
40257;DHT22;25977;45.462;9.210;2023-09-18T04:14:31;24.10;94.30
40257;DHT22;25977;45.462;9.210;2023-09-18T04:16:57;24.10;94.30
40257;DHT22;25977;45.462;9.210;2023-09-18T04:19:23;24.20;94.40
40257;DHT22;25977;45.462;9.210;2023-09-18T04:21:49;24.00;94.70
40257;DHT22;25977;45.462;9.210;2023-09-18T04:24:14;24.00;94.70
40257;DHT22;25977;45.462;9.210;2023-09-18T04:26:41;23.80;94.90
40257;DHT22;25977;45.462;9.210;2023-09-18T04:29:06;23.80;95.00
40257;DHT22;25977;45.462;9.210;2023-09-18T04:31:32;23.80;95.10
40257;DHT22;25977;45.462;9.210;2023-09-18T04:33:58;23.90;95.10
40257;DHT22;25977;45.462;9.210;2023-09-18T04:36:24;23.80;95.10
40257;DHT22;25977;45.462;9.210;2023-09-18T04:38:50;23.90;95.00
40257;DHT22;25977;45.462;9.210;2023-09-18T04:41:16;24.00;95.00
40257;DHT22;25977;45.462;9.210;2023-09-18T04:43:42;24.00;95.00
40257;DHT22;25977;45.462;9.210;2023-09-18T04:46:08;24.00;95.10
40257;DHT22;25977;45.462;9.210;2023-09-18T04:48:35;23.80;95.50
40257;DHT22;25977;45.462;9.210;2023-09-18T04:51:02;23.80;95.50
40257;DHT22;25977;45.462;9.210;2023-09-18T04:53:30;23.80;95.60
40257;DHT22;25977;45.462;9.210;2023-09-18T04:55:56;23.80;95.60
40257;DHT22;25977;45.462;9.210;2023-09-18T04:58:21;23.80;95.60
40257;DHT22;25977;45.462;9.210;2023-09-18T05:00:54;23.60;95.80
40257;DHT22;25977;45.462;9.210;2023-09-18T05:03:20;23.70;95.80
40257;DHT22;25977;45.462;9.210;2023-09-18T05:05:47;23.70;96.00
40257;DHT22;25977;45.462;9.210;2023-09-18T05:08:12;23.80;95.90
40257;DHT22;25977;45.462;9.210;2023-09-18T05:10:38;23.80;95.70
40257;DHT22;25977;45.462;9.210;2023-09-18T05:13:04;23.80;95.70
40257;DHT22;25977;45.462;9.210;2023-09-18T05:15:30;23.80;95.60
40257;DHT22;25977;45.462;9.210;2023-09-18T05:17:58;23.80;95.70
40257;DHT22;25977;45.462;9.210;2023-09-18T05:20:25;23.80;95.70
40257;DHT22;25977;45.462;9.210;2023-09-18T05:22:55;23.80;95.80
40257;DHT22;25977;45.462;9.210;2023-09-18T05:25:22;23.80;95.90
40257;DHT22;25977;45.462;9.210;2023-09-18T05:27:49;23.80;95.90
40257;DHT22;25977;45.462;9.210;2023-09-18T05:30:29;23.80;95.90
40257;DHT22;25977;45.462;9.210;2023-09-18T05:32:57;23.80;95.90
40257;DHT22;25977;45.462;9.210;2023-09-18T05:35:23;23.70;96.00
40257;DHT22;25977;45.462;9.210;2023-09-18T05:37:49;23.70;96.00
40257;DHT22;25977;45.462;9.210;2023-09-18T05:40:16;23.70;96.20
40257;DHT22;25977;45.462;9.210;2023-09-18T05:42:43;23.60;96.30
40257;DHT22;25977;45.462;9.210;2023-09-18T05:45:10;23.50;96.50
40257;DHT22;25977;45.462;9.210;2023-09-18T05:47:36;23.60;96.50
40257;DHT22;25977;45.462;9.210;2023-09-18T05:50:03;23.60;96.40
40257;DHT22;25977;45.462;9.210;2023-09-18T05:52:29;23.50;96.50
40257;DHT22;25977;45.462;9.210;2023-09-18T05:54:55;23.60;96.60
40257;DHT22;25977;45.462;9.210;2023-09-18T05:57:21;23.60;96.60
40257;DHT22;25977;45.462;9.210;2023-09-18T05:59:46;23.60;96.70
40257;DHT22;25977;45.462;9.210;2023-09-18T06:02:13;23.60;96.80
40257;DHT22;25977;45.462;9.210;2023-09-18T06:04:38;23.50;96.90
40257;DHT22;25977;45.462;9.210;2023-09-18T06:07:04;23.60;96.90
40257;DHT22;25977;45.462;9.210;2023-09-18T06:09:30;23.50;96.90
40257;DHT22;25977;45.462;9.210;2023-09-18T06:11:55;23.40;96.90
40257;DHT22;25977;45.462;9.210;2023-09-18T06:14:22;23.50;97.00
40257;DHT22;25977;45.462;9.210;2023-09-18T06:16:47;23.40;97.20
40257;DHT22;25977;45.462;9.210;2023-09-18T06:19:13;23.10;97.70
40257;DHT22;25977;45.462;9.210;2023-09-18T06:21:39;23.20;97.60
40257;DHT22;25977;45.462;9.210;2023-09-18T06:24:05;23.00;97.80
40257;DHT22;25977;45.462;9.210;2023-09-18T06:26:31;23.00;98.10
40257;DHT22;25977;45.462;9.210;2023-09-18T06:28:57;23.10;98.00
40257;DHT22;25977;45.462;9.210;2023-09-18T06:31:22;22.80;98.00
40257;DHT22;25977;45.462;9.210;2023-09-18T06:33:49;23.00;98.20
40257;DHT22;25977;45.462;9.210;2023-09-18T06:36:14;23.00;98.10
40257;DHT22;25977;45.462;9.210;2023-09-18T06:38:40;23.00;98.10
40257;DHT22;25977;45.462;9.210;2023-09-18T06:41:06;23.00;98.20
40257;DHT22;25977;45.462;9.210;2023-09-18T06:43:31;23.10;98.30
40257;DHT22;25977;45.462;9.210;2023-09-18T06:45:57;23.10;98.20
40257;DHT22;25977;45.462;9.210;2023-09-18T06:48:25;23.10;98.10
40257;DHT22;25977;45.462;9.210;2023-09-18T06:50:51;23.30;98.00
40257;DHT22;25977;45.462;9.210;2023-09-18T06:53:17;23.30;97.90
40257;DHT22;25977;45.462;9.210;2023-09-18T06:55:43;23.40;97.80
40257;DHT22;25977;45.462;9.210;2023-09-18T06:58:08;23.40;97.70
40257;DHT22;25977;45.462;9.210;2023-09-18T07:00:34;23.40;97.60
40257;DHT22;25977;45.462;9.210;2023-09-18T07:03:00;23.40;97.60
40257;DHT22;25977;45.462;9.210;2023-09-18T07:05:27;23.50;97.60
40257;DHT22;25977;45.462;9.210;2023-09-18T07:07:52;23.20;97.70
40257;DHT22;25977;45.462;9.210;2023-09-18T07:10:18;23.30;98.00
40257;DHT22;25977;45.462;9.210;2023-09-18T07:12:44;23.30;97.90
40257;DHT22;25977;45.462;9.210;2023-09-18T07:15:10;23.30;98.00
40257;DHT22;25977;45.462;9.210;2023-09-18T07:17:35;23.30;98.00
40257;DHT22;25977;45.462;9.210;2023-09-18T07:20:02;23.20;98.10
40257;DHT22;25977;45.462;9.210;2023-09-18T07:22:35;23.20;98.20
40257;DHT22;25977;45.462;9.210;2023-09-18T07:25:00;23.10;98.10
40257;DHT22;25977;45.462;9.210;2023-09-18T07:27:26;23.20;98.10
40257;DHT22;25977;45.462;9.210;2023-09-18T07:29:55;23.10;98.50
40257;DHT22;25977;45.462;9.210;2023-09-18T07:32:20;23.10;98.60
40257;DHT22;25977;45.462;9.210;2023-09-18T07:34:46;23.10;98.60
40257;DHT22;25977;45.462;9.210;2023-09-18T07:37:13;23.10;98.70
40257;DHT22;25977;45.462;9.210;2023-09-18T07:39:40;23.00;98.90
40257;DHT22;25977;45.462;9.210;2023-09-18T07:42:08;23.10;98.80
40257;DHT22;25977;45.462;9.210;2023-09-18T07:44:34;23.00;99.20
40257;DHT22;25977;45.462;9.210;2023-09-18T07:47:00;23.00;99.30
40257;DHT22;25977;45.462;9.210;2023-09-18T07:49:27;23.10;99.30
40257;DHT22;25977;45.462;9.210;2023-09-18T07:51:52;23.10;99.40
40257;DHT22;25977;45.462;9.210;2023-09-18T07:54:18;23.10;99.50
40257;DHT22;25977;45.462;9.210;2023-09-18T07:56:43;23.00;99.80
40257;DHT22;25977;45.462;9.210;2023-09-18T07:59:11;22.90;99.90
40257;DHT22;25977;45.462;9.210;2023-09-18T08:01:37;22.90;99.90
40257;DHT22;25977;45.462;9.210;2023-09-18T08:04:02;23.10;99.90
40257;DHT22;25977;45.462;9.210;2023-09-18T08:06:28;23.20;99.80
40257;DHT22;25977;45.462;9.210;2023-09-18T08:08:54;23.00;99.90
40257;DHT22;25977;45.462;9.210;2023-09-18T08:11:19;23.10;99.90
40257;DHT22;25977;45.462;9.210;2023-09-18T08:13:45;23.00;99.90
40257;DHT22;25977;45.462;9.210;2023-09-18T08:16:11;22.90;99.90
40257;DHT22;25977;45.462;9.210;2023-09-18T08:18:36;23.00;99.90
40257;DHT22;25977;45.462;9.210;2023-09-18T08:21:07;23.20;99.90
40257;DHT22;25977;45.462;9.210;2023-09-18T08:23:35;23.20;99.90
40257;DHT22;25977;45.462;9.210;2023-09-18T08:26:02;23.30;99.90
40257;DHT22;25977;45.462;9.210;2023-09-18T08:28:29;23.20;99.90
40257;DHT22;25977;45.462;9.210;2023-09-18T08:30:55;23.00;99.90
40257;DHT22;25977;45.462;9.210;2023-09-18T08:33:21;23.00;99.90
40257;DHT22;25977;45.462;9.210;2023-09-18T08:35:47;23.00;99.90
40257;DHT22;25977;45.462;9.210;2023-09-18T08:38:15;23.00;99.90
40257;DHT22;25977;45.462;9.210;2023-09-18T08:40:41;23.10;99.90
40257;DHT22;25977;45.462;9.210;2023-09-18T08:43:11;23.20;99.90
40257;DHT22;25977;45.462;9.210;2023-09-18T08:45:51;23.30;99.90
40257;DHT22;25977;45.462;9.210;2023-09-18T08:48:18;23.30;99.80
40257;DHT22;25977;45.462;9.210;2023-09-18T08:50:45;23.20;99.90
40257;DHT22;25977;45.462;9.210;2023-09-18T08:53:11;23.40;99.70
40257;DHT22;25977;45.462;9.210;2023-09-18T08:55:37;23.40;99.40
40257;DHT22;25977;45.462;9.210;2023-09-18T08:58:03;23.40;99.40
40257;DHT22;25977;45.462;9.210;2023-09-18T09:00:28;23.20;99.80
40257;DHT22;25977;45.462;9.210;2023-09-18T09:02:54;23.30;99.50
40257;DHT22;25977;45.462;9.210;2023-09-18T09:05:23;23.40;99.40
40257;DHT22;25977;45.462;9.210;2023-09-18T09:07:50;23.40;99.50
40257;DHT22;25977;45.462;9.210;2023-09-18T09:10:17;23.40;99.30
40257;DHT22;25977;45.462;9.210;2023-09-18T09:12:55;23.40;99.30
40257;DHT22;25977;45.462;9.210;2023-09-18T09:15:25;23.50;99.10
40257;DHT22;25977;45.462;9.210;2023-09-18T09:17:52;23.30;99.30
40257;DHT22;25977;45.462;9.210;2023-09-18T09:20:27;23.40;99.30
40257;DHT22;25977;45.462;9.210;2023-09-18T09:23:09;23.40;99.30
40257;DHT22;25977;45.462;9.210;2023-09-18T09:25:35;23.50;99.10
40257;DHT22;25977;45.462;9.210;2023-09-18T09:28:05;23.40;99.10
40257;DHT22;25977;45.462;9.210;2023-09-18T09:30:32;23.40;99.20
40257;DHT22;25977;45.462;9.210;2023-09-18T09:32:59;23.30;99.50
40257;DHT22;25977;45.462;9.210;2023-09-18T09:35:29;23.30;99.60
40257;DHT22;25977;45.462;9.210;2023-09-18T09:38:00;23.30;99.60
40257;DHT22;25977;45.462;9.210;2023-09-18T09:40:29;23.20;99.70
40257;DHT22;25977;45.462;9.210;2023-09-18T09:42:56;23.30;99.60
40257;DHT22;25977;45.462;9.210;2023-09-18T09:45:32;23.50;99.40
40257;DHT22;25977;45.462;9.210;2023-09-18T09:48:03;23.60;99.30
40257;DHT22;25977;45.462;9.210;2023-09-18T09:50:32;23.70;99.00
40257;DHT22;25977;45.462;9.210;2023-09-18T09:52:59;23.70;98.90
40257;DHT22;25977;45.462;9.210;2023-09-18T09:55:32;23.80;98.90
40257;DHT22;25977;45.462;9.210;2023-09-18T09:58:00;23.80;99.00
40257;DHT22;25977;45.462;9.210;2023-09-18T10:00:43;23.80;98.90
40257;DHT22;25977;45.462;9.210;2023-09-18T10:03:16;23.80;99.00
40257;DHT22;25977;45.462;9.210;2023-09-18T10:05:45;23.70;99.00
40257;DHT22;25977;45.462;9.210;2023-09-18T10:08:17;23.80;99.10
40257;DHT22;25977;45.462;9.210;2023-09-18T10:10:49;23.80;99.10
40257;DHT22;25977;45.462;9.210;2023-09-18T10:13:35;23.80;99.10
40257;DHT22;25977;45.462;9.210;2023-09-18T10:16:04;23.70;99.20
40257;DHT22;25977;45.462;9.210;2023-09-18T10:24:19;23.80;99.10
40257;DHT22;25977;45.462;9.210;2023-09-18T10:26:57;24.00;98.80
40257;DHT22;25977;45.462;9.210;2023-09-18T10:29:24;24.00;98.70
40257;DHT22;25977;45.462;9.210;2023-09-18T10:31:51;24.00;98.60
40257;DHT22;25977;45.462;9.210;2023-09-18T10:34:18;24.20;98.30
40257;DHT22;25977;45.462;9.210;2023-09-18T10:36:47;24.20;98.20
40257;DHT22;25977;45.462;9.210;2023-09-18T10:39:13;24.30;98.10
40257;DHT22;25977;45.462;9.210;2023-09-18T10:41:39;24.30;97.90
40257;DHT22;25977;45.462;9.210;2023-09-18T10:44:07;24.30;97.70
40257;DHT22;25977;45.462;9.210;2023-09-18T10:46:33;24.10;98.00
40257;DHT22;25977;45.462;9.210;2023-09-18T10:49:00;24.20;98.00
40257;DHT22;25977;45.462;9.210;2023-09-18T10:51:27;24.30;97.80
40257;DHT22;25977;45.462;9.210;2023-09-18T10:53:55;24.40;97.60
40257;DHT22;25977;45.462;9.210;2023-09-18T10:56:21;24.50;97.50
40257;DHT22;25977;45.462;9.210;2023-09-18T10:58:59;24.40;96.60
40257;DHT22;25977;45.462;9.210;2023-09-18T11:01:25;24.40;96.40
40257;DHT22;25977;45.462;9.210;2023-09-18T11:03:53;24.30;96.50
40257;DHT22;25977;45.462;9.210;2023-09-18T11:06:22;24.30;96.50
40257;DHT22;25977;45.462;9.210;2023-09-18T11:08:59;24.40;96.40
40257;DHT22;25977;45.462;9.210;2023-09-18T11:11:27;24.40;96.30
40257;DHT22;25977;45.462;9.210;2023-09-18T11:13:56;24.40;96.20
40257;DHT22;25977;45.462;9.210;2023-09-18T11:19:05;24.30;96.30
40257;DHT22;25977;45.462;9.210;2023-09-18T11:21:32;24.40;96.20
40257;DHT22;25977;45.462;9.210;2023-09-18T11:24:16;24.40;96.10
40257;DHT22;25977;45.462;9.210;2023-09-18T11:26:44;24.50;96.00
40257;DHT22;25977;45.462;9.210;2023-09-18T11:29:12;24.60;95.80
40257;DHT22;25977;45.462;9.210;2023-09-18T11:31:50;24.60;95.70
40257;DHT22;25977;45.462;9.210;2023-09-18T11:34:22;24.70;95.60
40257;DHT22;25977;45.462;9.210;2023-09-18T11:36:48;24.80;95.50
40257;DHT22;25977;45.462;9.210;2023-09-18T11:39:33;24.70;95.70
40257;DHT22;25977;45.462;9.210;2023-09-18T11:42:18;24.60;95.60
40257;DHT22;25977;45.462;9.210;2023-09-18T11:44:44;24.50;95.70
40257;DHT22;25977;45.462;9.210;2023-09-18T11:47:13;24.60;95.60
40257;DHT22;25977;45.462;9.210;2023-09-18T11:49:53;24.70;95.50
40257;DHT22;25977;45.462;9.210;2023-09-18T11:52:21;24.70;95.40
40257;DHT22;25977;45.462;9.210;2023-09-18T11:54:47;24.80;95.30
40257;DHT22;25977;45.462;9.210;2023-09-18T11:57:14;24.70;95.60
40257;DHT22;25977;45.462;9.210;2023-09-18T11:59:43;24.80;95.30
40257;DHT22;25977;45.462;9.210;2023-09-18T12:02:29;24.80;95.10
40257;DHT22;25977;45.462;9.210;2023-09-18T12:05:11;24.80;95.10
40257;DHT22;25977;45.462;9.210;2023-09-18T12:07:40;24.90;95.00
40257;DHT22;25977;45.462;9.210;2023-09-18T12:10:09;24.90;94.90
40257;DHT22;25977;45.462;9.210;2023-09-18T12:12:35;25.00;94.90
40257;DHT22;25977;45.462;9.210;2023-09-18T12:15:01;25.00;94.70
40257;DHT22;25977;45.462;9.210;2023-09-18T12:17:27;25.00;94.70
40257;DHT22;25977;45.462;9.210;2023-09-18T12:19:54;25.10;94.70
40257;DHT22;25977;45.462;9.210;2023-09-18T12:22:27;25.10;94.60
40257;DHT22;25977;45.462;9.210;2023-09-18T12:24:53;25.20;94.70
40257;DHT22;25977;45.462;9.210;2023-09-18T12:27:19;25.20;94.70
40257;DHT22;25977;45.462;9.210;2023-09-18T12:29:44;25.10;94.60
40257;DHT22;25977;45.462;9.210;2023-09-18T12:32:11;25.00;94.70
40257;DHT22;25977;45.462;9.210;2023-09-18T12:34:42;25.00;94.80
40257;DHT22;25977;45.462;9.210;2023-09-18T12:37:08;25.00;95.00
40257;DHT22;25977;45.462;9.210;2023-09-18T12:39:37;24.90;95.10
40257;DHT22;25977;45.462;9.210;2023-09-18T12:42:03;25.00;95.10
40257;DHT22;25977;45.462;9.210;2023-09-18T12:44:30;25.00;95.10
40257;DHT22;25977;45.462;9.210;2023-09-18T12:46:56;25.00;95.20
40257;DHT22;25977;45.462;9.210;2023-09-18T12:49:23;25.00;95.20
40257;DHT22;25977;45.462;9.210;2023-09-18T12:52:01;25.00;95.20
40257;DHT22;25977;45.462;9.210;2023-09-18T12:57:05;25.00;95.20
40257;DHT22;25977;45.462;9.210;2023-09-18T12:59:36;25.10;95.30
40257;DHT22;25977;45.462;9.210;2023-09-18T13:02:05;25.10;95.40
40257;DHT22;25977;45.462;9.210;2023-09-18T13:04:35;25.00;95.60
40257;DHT22;25977;45.462;9.210;2023-09-18T13:07:13;25.00;95.60
40257;DHT22;25977;45.462;9.210;2023-09-18T13:09:42;24.90;95.90
40257;DHT22;25977;45.462;9.210;2023-09-18T13:12:08;25.00;95.90
40257;DHT22;25977;45.462;9.210;2023-09-18T13:15:02;25.00;95.90
40257;DHT22;25977;45.462;9.210;2023-09-18T13:17:45;25.00;95.90
40257;DHT22;25977;45.462;9.210;2023-09-18T13:22:39;25.10;95.80
40257;DHT22;25977;45.462;9.210;2023-09-18T13:25:07;25.20;95.90
40257;DHT22;25977;45.462;9.210;2023-09-18T13:27:33;25.20;95.90
40257;DHT22;25977;45.462;9.210;2023-09-18T13:29:58;25.20;95.90
40257;DHT22;25977;45.462;9.210;2023-09-18T13:32:33;25.20;96.00
40257;DHT22;25977;45.462;9.210;2023-09-18T13:34:59;25.10;96.20
40257;DHT22;25977;45.462;9.210;2023-09-18T13:37:25;25.10;96.20
40257;DHT22;25977;45.462;9.210;2023-09-18T13:39:52;25.20;96.20
40257;DHT22;25977;45.462;9.210;2023-09-18T13:42:18;25.10;96.20
40257;DHT22;25977;45.462;9.210;2023-09-18T13:44:43;25.10;96.30
40257;DHT22;25977;45.462;9.210;2023-09-18T13:47:12;25.20;96.30
40257;DHT22;25977;45.462;9.210;2023-09-18T13:49:38;25.40;96.20
40257;DHT22;25977;45.462;9.210;2023-09-18T13:52:05;25.60;96.00
40257;DHT22;25977;45.462;9.210;2023-09-18T13:54:31;25.60;95.90
40257;DHT22;25977;45.462;9.210;2023-09-18T13:56:57;25.70;95.70
40257;DHT22;25977;45.462;9.210;2023-09-18T13:59:23;25.70;95.90
40257;DHT22;25977;45.462;9.210;2023-09-18T14:01:51;25.60;95.90
40257;DHT22;25977;45.462;9.210;2023-09-18T14:04:17;25.50;95.90
40257;DHT22;25977;45.462;9.210;2023-09-18T14:06:43;25.40;96.10
40257;DHT22;25977;45.462;9.210;2023-09-18T14:09:08;25.40;96.20
40257;DHT22;25977;45.462;9.210;2023-09-18T14:11:35;25.30;96.20
40257;DHT22;25977;45.462;9.210;2023-09-18T14:14:03;25.30;96.30
40257;DHT22;25977;45.462;9.210;2023-09-18T14:16:29;25.30;96.40
40257;DHT22;25977;45.462;9.210;2023-09-18T14:18:59;25.20;96.30
40257;DHT22;25977;45.462;9.210;2023-09-18T14:21:25;25.20;96.50
40257;DHT22;25977;45.462;9.210;2023-09-18T14:23:54;25.30;96.50
40257;DHT22;25977;45.462;9.210;2023-09-18T14:26:20;25.30;96.50
40257;DHT22;25977;45.462;9.210;2023-09-18T14:28:45;25.30;96.50
40257;DHT22;25977;45.462;9.210;2023-09-18T14:31:12;25.30;96.50
40257;DHT22;25977;45.462;9.210;2023-09-18T14:33:37;25.30;96.20
40257;DHT22;25977;45.462;9.210;2023-09-18T14:36:03;25.30;96.30
40257;DHT22;25977;45.462;9.210;2023-09-18T14:38:29;25.30;96.20
40257;DHT22;25977;45.462;9.210;2023-09-18T14:40:56;25.30;96.20
40257;DHT22;25977;45.462;9.210;2023-09-18T14:43:28;25.20;96.20
40257;DHT22;25977;45.462;9.210;2023-09-18T14:45:53;25.30;96.20
40257;DHT22;25977;45.462;9.210;2023-09-18T14:48:22;25.30;96.20
40257;DHT22;25977;45.462;9.210;2023-09-18T14:50:54;25.30;96.30
40257;DHT22;25977;45.462;9.210;2023-09-18T14:53:20;25.30;96.40
40257;DHT22;25977;45.462;9.210;2023-09-18T14:55:46;25.20;96.50
40257;DHT22;25977;45.462;9.210;2023-09-18T14:58:14;25.20;96.50
40257;DHT22;25977;45.462;9.210;2023-09-18T15:00:39;25.20;96.50
40257;DHT22;25977;45.462;9.210;2023-09-18T15:03:06;25.20;96.50
40257;DHT22;25977;45.462;9.210;2023-09-18T15:05:32;25.20;96.50
40257;DHT22;25977;45.462;9.210;2023-09-18T15:07:57;25.30;96.40
40257;DHT22;25977;45.462;9.210;2023-09-18T15:10:23;25.30;96.40
40257;DHT22;25977;45.462;9.210;2023-09-18T15:12:49;25.80;97.10
40257;DHT22;25977;45.462;9.210;2023-09-18T15:15:14;25.20;96.70
40257;DHT22;25977;45.462;9.210;2023-09-18T15:17:40;25.20;96.80
40257;DHT22;25977;45.462;9.210;2023-09-18T15:20:06;25.20;96.60
40257;DHT22;25977;45.462;9.210;2023-09-18T15:22:32;25.10;96.40
40257;DHT22;25977;45.462;9.210;2023-09-18T15:24:58;25.00;96.40
40257;DHT22;25977;45.462;9.210;2023-09-18T15:27:24;25.00;96.50
40257;DHT22;25977;45.462;9.210;2023-09-18T15:29:49;25.10;96.40
40257;DHT22;25977;45.462;9.210;2023-09-18T15:32:15;25.10;96.50
40257;DHT22;25977;45.462;9.210;2023-09-18T15:34:41;25.10;96.50
40257;DHT22;25977;45.462;9.210;2023-09-18T15:37:07;25.10;96.60
40257;DHT22;25977;45.462;9.210;2023-09-18T15:39:32;25.00;96.70
40257;DHT22;25977;45.462;9.210;2023-09-18T15:42:00;25.00;96.60
40257;DHT22;25977;45.462;9.210;2023-09-18T15:44:26;25.00;96.70
40257;DHT22;25977;45.462;9.210;2023-09-18T15:46:52;24.90;96.90
40257;DHT22;25977;45.462;9.210;2023-09-18T15:49:17;24.80;96.90